Time;durP1;ratioP1;P1;durP2;ratioP2;P2;SDS_P1;SDS_P2;PMS_P1;PMS_P2;Temp;Humidity;BMP_temperature;BMP_pressure;BME280_temperature;BME280_humidity;BME280_pressure;Samples;Min_cycle;Max_cycle;Signal;HPM_P1;HPM_P2
2022/11/29 00:01:03;;;;;;;14.03;10.27;;;8.60;99.90;;;;;;5065933;28;20662;-63
2022/11/29 00:03:30;;;;;;;18.90;11.00;;;8.60;99.90;;;;;;5066361;28;20185;-64
2022/11/29 00:05:56;;;;;;;14.03;8.87;;;8.60;99.90;;;;;;5062852;28;20194;-64
2022/11/29 00:08:23;;;;;;;18.40;10.77;;;8.60;99.90;;;;;;5064079;28;20186;-64
2022/11/29 00:10:49;;;;;;;14.43;9.20;;;8.60;99.90;;;;;;5054689;28;20189;-64
2022/11/29 00:13:16;;;;;;;12.17;8.97;;;8.50;99.90;;;;;;5058830;28;20248;-64
2022/11/29 00:15:42;;;;;;;16.93;9.50;;;8.50;99.90;;;;;;5052584;28;20186;-64
2022/11/29 00:18:07;;;;;;;24.83;10.63;;;8.50;99.90;;;;;;5052382;28;20538;-64
2022/11/29 00:20:34;;;;;;;16.53;8.90;;;8.50;99.90;;;;;;5054241;28;20705;-64
2022/11/29 00:23:00;;;;;;;13.17;9.27;;;8.40;99.90;;;;;;5064382;28;20716;-64
2022/11/29 00:25:26;;;;;;;15.10;9.57;;;8.30;99.90;;;;;;5060432;28;20219;-64
2022/11/29 00:27:52;;;;;;;13.80;8.93;;;8.30;99.90;;;;;;5062719;28;20551;-64
2022/11/29 00:30:19;;;;;;;15.67;9.43;;;8.30;99.90;;;;;;5053797;28;20777;-64
2022/11/29 00:32:45;;;;;;;14.07;9.63;;;8.30;99.90;;;;;;5063822;28;20204;-64
2022/11/29 00:35:11;;;;;;;18.43;9.70;;;8.20;99.90;;;;;;5070131;28;20240;-64
2022/11/29 00:37:37;;;;;;;17.10;9.13;;;8.20;99.90;;;;;;5056265;28;20178;-64
2022/11/29 00:40:04;;;;;;;16.43;9.83;;;8.20;99.90;;;;;;5098917;28;20220;-64
2022/11/29 00:42:29;;;;;;;17.50;8.97;;;8.10;99.90;;;;;;5065620;28;20189;-64
2022/11/29 00:44:55;;;;;;;14.77;9.60;;;8.20;99.90;;;;;;5063565;28;20193;-64
2022/11/29 00:47:21;;;;;;;19.93;10.43;;;8.10;99.90;;;;;;5054842;28;20220;-64
2022/11/29 00:49:46;;;;;;;15.70;9.73;;;8.10;99.90;;;;;;5055254;28;20703;-64
2022/11/29 00:52:12;;;;;;;17.23;10.53;;;8.10;99.90;;;;;;5063199;28;20201;-64
2022/11/29 00:54:38;;;;;;;13.03;9.13;;;8.10;99.90;;;;;;5068762;28;20190;-64
2022/11/29 00:57:03;;;;;;;13.73;9.23;;;8.10;99.90;;;;;;5087537;28;20186;-64
2022/11/29 00:59:29;;;;;;;16.27;9.53;;;8.10;99.90;;;;;;5054905;28;20243;-64
2022/11/29 01:01:55;;;;;;;15.57;9.80;;;8.10;99.90;;;;;;5056702;28;20182;-64
2022/11/29 01:04:21;;;;;;;15.50;10.17;;;8.00;99.90;;;;;;5055340;28;20193;-63
2022/11/29 01:06:51;;;;;;;15.77;8.80;;;8.10;99.90;;;;;;5070943;28;20655;-63
2022/11/29 01:09:17;;;;;;;20.70;12.13;;;8.10;99.90;;;;;;5061648;28;20192;-63
2022/11/29 01:11:43;;;;;;;15.03;10.17;;;8.10;99.90;;;;;;5054492;28;20642;-63
2022/11/29 01:14:10;;;;;;;15.63;8.40;;;8.10;99.90;;;;;;5054715;28;20194;-63
2022/11/29 01:16:36;;;;;;;17.40;9.60;;;8.00;99.90;;;;;;5053990;28;20186;-63
2022/11/29 01:19:02;;;;;;;12.23;8.17;;;8.00;99.90;;;;;;5054689;28;20201;-63
2022/11/29 01:21:28;;;;;;;20.43;9.20;;;8.00;99.90;;;;;;5057540;28;20677;-64
2022/11/29 01:23:54;;;;;;;20.20;10.40;;;8.00;99.90;;;;;;5066958;28;20182;-63
2022/11/29 01:26:25;;;;;;;18.17;8.83;;;8.00;99.90;;;;;;5063588;28;20192;-64
2022/11/29 01:28:52;;;;;;;12.30;8.33;;;8.00;99.90;;;;;;5063021;28;20177;-64
2022/11/29 01:31:24;;;;;;;16.83;10.20;;;8.00;99.90;;;;;;5056864;28;20188;-63
2022/11/29 01:33:54;;;;;;;19.53;10.77;;;8.00;99.90;;;;;;5069869;28;20235;-63
2022/11/29 01:36:20;;;;;;;18.50;10.23;;;8.00;99.90;;;;;;5068075;28;20182;-63
2022/11/29 01:38:45;;;;;;;13.23;8.83;;;8.10;99.90;;;;;;5056489;28;20256;-63
2022/11/29 01:41:20;;;;;;;22.80;11.03;;;8.10;99.90;;;;;;5073545;28;20201;-63
2022/11/29 01:44:11;;;;;;;18.37;11.87;;;8.20;99.90;;;;;;5062878;28;20217;-64
2022/11/29 01:46:39;;;;;;;16.30;9.60;;;8.10;99.90;;;;;;5065198;28;20193;-63
2022/11/29 01:49:33;;;;;;;19.97;12.10;;;8.10;99.90;;;;;;5057447;28;20180;-63
2022/11/29 01:52:00;;;;;;;21.93;12.10;;;8.10;99.90;;;;;;5054517;28;20647;-63
2022/11/29 01:54:28;;;;;;;15.90;9.27;;;8.00;99.90;;;;;;5053930;28;20627;-63
2022/11/29 01:56:54;;;;;;;18.80;10.57;;;8.00;99.90;;;;;;5054310;28;20259;-63
2022/11/29 01:59:22;;;;;;;19.87;10.43;;;8.00;99.90;;;;;;5065747;28;20658;-63
2022/11/29 02:01:48;;;;;;;21.40;10.57;;;7.90;99.90;;;;;;5072190;28;20226;-63
2022/11/29 02:04:15;;;;;;;17.20;10.60;;;7.90;99.90;;;;;;5056167;28;20588;-63
2022/11/29 02:06:41;;;;;;;23.00;11.10;;;7.90;99.90;;;;;;5057834;28;20239;-63
2022/11/29 02:09:19;;;;;;;17.57;9.87;;;7.90;99.90;;;;;;5066178;28;20193;-63
2022/11/29 02:11:58;;;;;;;16.10;9.90;;;7.80;99.90;;;;;;5059765;28;20177;-63
2022/11/29 02:14:47;;;;;;;16.37;10.03;;;7.80;99.90;;;;;;5064566;28;20198;-64
2022/11/29 02:17:21;;;;;;;16.43;9.07;;;7.80;99.90;;;;;;5057144;28;20238;-63
2022/11/29 02:20:06;;;;;;;13.13;10.20;;;7.70;99.90;;;;;;5063602;28;20244;-63
2022/11/29 02:22:55;;;;;;;16.40;10.17;;;7.70;99.90;;;;;;5058790;28;20244;-63
2022/11/29 02:25:36;;;;;;;13.30;10.00;;;7.60;99.90;;;;;;5061529;28;20180;-63
2022/11/29 02:28:32;;;;;;;15.47;9.07;;;7.60;99.90;;;;;;5062007;28;20182;-63
2022/11/29 02:31:30;;;;;;;18.03;10.53;;;7.60;99.90;;;;;;5057874;28;20206;-63
2022/11/29 02:34:34;;;;;;;13.80;8.87;;;7.60;99.90;;;;;;5063435;28;20190;-64
2022/11/29 02:37:03;;;;;;;14.00;8.73;;;7.70;99.90;;;;;;5015423;28;20187;-64
2022/11/29 02:39:42;;;;;;;15.77;9.50;;;7.70;99.90;;;;;;5019522;28;20206;-63
2022/11/29 02:42:53;;;;;;;24.60;10.33;;;7.80;99.90;;;;;;5038987;28;20659;-64
2022/11/29 02:45:41;;;;;;;16.63;9.87;;;7.90;99.90;;;;;;5057050;28;20673;-62
2022/11/29 02:48:40;;;;;;;16.77;10.40;;;8.00;99.90;;;;;;5066998;28;20198;-63
2022/11/29 02:51:21;;;;;;;18.27;10.17;;;8.00;99.90;;;;;;5052433;28;20186;-63
2022/11/29 02:53:59;;;;;;;12.87;9.90;;;8.00;99.90;;;;;;5052496;28;20477;-62
2022/11/29 02:56:25;;;;;;;17.17;10.37;;;8.10;99.90;;;;;;5071690;28;20177;-62
2022/11/29 02:59:03;;;;;;;17.17;11.80;;;8.10;99.90;;;;;;5053031;28;20210;-62
2022/11/29 03:01:34;;;;;;;18.17;10.27;;;8.20;99.90;;;;;;5066165;28;20247;-62
2022/11/29 03:04:27;;;;;;;16.90;9.07;;;8.30;99.90;;;;;;5052734;28;20181;-62
2022/11/29 03:07:08;;;;;;;18.23;9.37;;;8.40;99.90;;;;;;5052615;28;20174;-62
2022/11/29 03:09:52;;;;;;;17.83;9.60;;;8.50;99.90;;;;;;5052759;28;20239;-62
2022/11/29 03:12:30;;;;;;;16.80;9.40;;;8.50;99.90;;;;;;5054158;28;20587;-62
2022/11/29 03:15:20;;;;;;;18.30;10.17;;;8.50;99.90;;;;;;5055324;28;20665;-62
2022/11/29 03:18:06;;;;;;;12.77;8.80;;;8.50;99.90;;;;;;5063838;28;20178;-63
2022/11/29 03:20:32;;;;;;;14.93;9.13;;;8.60;99.90;;;;;;5065261;28;20192;-63
2022/11/29 03:23:09;;;;;;;23.10;10.30;;;8.60;99.90;;;;;;5052269;28;20178;-63
2022/11/29 03:25:52;;;;;;;16.50;9.10;;;8.70;99.90;;;;;;5053355;28;20187;-65
2022/11/29 03:28:31;;;;;;;18.33;10.00;;;8.70;99.90;;;;;;5056198;28;20231;-63
2022/11/29 03:31:30;;;;;;;19.73;9.13;;;8.70;99.90;;;;;;5055008;28;20622;-63
2022/11/29 03:34:15;;;;;;;15.43;8.70;;;8.70;99.90;;;;;;5067269;28;20244;-62
2022/11/29 03:37:05;;;;;;;15.23;8.87;;;8.70;99.90;;;;;;5052391;28;20182;-62
2022/11/29 03:39:58;;;;;;;13.40;8.37;;;8.60;99.90;;;;;;5056803;28;20193;-62
2022/11/29 03:42:32;;;;;;;13.43;8.70;;;8.60;99.90;;;;;;5070040;28;20190;-62
2022/11/29 03:45:15;;;;;;;15.37;9.07;;;8.60;99.90;;;;;;5057726;28;20188;-62
2022/11/29 03:48:03;;;;;;;13.97;8.00;;;8.60;99.90;;;;;;5066870;28;20181;-62
2022/11/29 03:50:40;;;;;;;14.93;8.77;;;8.60;99.90;;;;;;5071398;28;20178;-62
2022/11/29 03:53:47;;;;;;;12.93;8.17;;;8.60;99.90;;;;;;5057568;28;20593;-63
2022/11/29 03:56:35;;;;;;;15.23;9.50;;;8.60;99.90;;;;;;5042769;28;20189;-63
2022/11/29 03:59:40;;;;;;;16.20;8.70;;;8.70;99.90;;;;;;5052733;28;20224;-63
2022/11/29 04:02:30;;;;;;;14.83;9.23;;;8.70;99.90;;;;;;5052022;28;20193;-62
2022/11/29 04:04:59;;;;;;;15.97;9.63;;;8.70;99.90;;;;;;5056226;28;20186;-62
2022/11/29 04:07:43;;;;;;;14.60;9.17;;;8.70;99.90;;;;;;5056481;28;20181;-63
2022/11/29 04:10:46;;;;;;;12.67;7.73;;;8.60;99.90;;;;;;5056414;28;20520;-63
2022/11/29 04:13:29;;;;;;;15.43;9.17;;;8.60;99.90;;;;;;5059727;28;20208;-62
2022/11/29 04:16:16;;;;;;;12.97;8.87;;;8.70;99.90;;;;;;5056083;28;20188;-62
2022/11/29 04:19:11;;;;;;;10.03;8.57;;;8.80;99.90;;;;;;5055184;28;20232;-62
2022/11/29 04:22:05;;;;;;;15.87;9.33;;;8.80;99.90;;;;;;5054252;28;20216;-62
2022/11/29 04:24:36;;;;;;;13.63;8.40;;;8.80;99.90;;;;;;5055287;28;20190;-62
2022/11/29 04:27:50;;;;;;;13.10;8.07;;;8.90;99.90;;;;;;5057106;28;20182;-62
2022/11/29 04:30:19;;;;;;;19.20;8.80;;;8.90;99.90;;;;;;5053814;28;20213;-62
2022/11/29 04:32:45;;;;;;;15.97;9.00;;;8.90;99.90;;;;;;5062554;28;20200;-62
2022/11/29 04:35:23;;;;;;;16.27;9.00;;;8.80;99.90;;;;;;5065343;28;20193;-62
2022/11/29 04:37:51;;;;;;;12.67;9.03;;;8.70;99.90;;;;;;5066421;28;20177;-63
2022/11/29 04:40:45;;;;;;;16.57;8.83;;;8.70;99.90;;;;;;5069740;28;20663;-62
2022/11/29 04:43:16;;;;;;;15.97;8.93;;;8.70;99.90;;;;;;5055259;28;20303;-64
2022/11/29 04:45:47;;;;;;;13.67;9.20;;;8.70;99.90;;;;;;5065799;28;20594;-64
2022/11/29 04:48:25;;;;;;;13.13;7.53;;;8.60;99.90;;;;;;5055060;28;20192;-63
2022/11/29 04:50:56;;;;;;;11.80;7.50;;;8.60;99.90;;;;;;5063266;28;20244;-64
2022/11/29 04:53:33;;;;;;;14.30;9.10;;;8.60;99.90;;;;;;5054756;28;20587;-64
2022/11/29 04:56:08;;;;;;;12.90;8.43;;;8.50;99.90;;;;;;5055205;28;20593;-64
2022/11/29 04:58:57;;;;;;;12.20;8.10;;;8.40;99.90;;;;;;5064718;28;20205;-64
2022/11/29 05:01:43;;;;;;;12.83;8.67;;;8.40;99.90;;;;;;5059974;28;20196;-63
2022/11/29 05:04:38;;;;;;;11.57;8.27;;;8.40;99.90;;;;;;5060128;28;20664;-62
2022/11/29 05:07:22;;;;;;;16.20;9.53;;;8.30;99.90;;;;;;5071034;28;20200;-62
2022/11/29 05:10:19;;;;;;;12.10;9.30;;;8.30;99.90;;;;;;5058151;28;20257;-62
2022/11/29 05:13:04;;;;;;;14.53;9.70;;;8.30;99.90;;;;;;5062651;28;20206;-63
2022/11/29 05:15:57;;;;;;;12.13;6.83;;;8.20;99.90;;;;;;5060354;28;20205;-62
2022/11/29 05:18:56;;;;;;;11.90;8.27;;;8.20;99.90;;;;;;5055858;28;20228;-62
2022/11/29 05:21:40;;;;;;;12.17;8.03;;;8.20;99.90;;;;;;5063663;28;20670;-62
2022/11/29 05:24:18;;;;;;;11.97;7.97;;;8.20;99.90;;;;;;5054688;28;20240;-62
2022/11/29 05:27:01;;;;;;;18.13;9.03;;;8.20;99.90;;;;;;5056907;28;20184;-62
2022/11/29 05:29:53;;;;;;;14.67;8.73;;;8.10;99.90;;;;;;5057603;28;20209;-62
2022/11/29 05:32:29;;;;;;;12.80;8.93;;;8.10;99.90;;;;;;5063076;28;20220;-62
2022/11/29 05:35:32;;;;;;;10.00;8.63;;;8.20;99.90;;;;;;5054240;28;20181;-62
2022/11/29 05:38:19;;;;;;;12.77;8.23;;;8.10;99.90;;;;;;5054248;28;20784;-63
2022/11/29 05:41:04;;;;;;;15.43;9.40;;;8.10;99.90;;;;;;5054651;28;20190;-63
2022/11/29 05:43:49;;;;;;;14.93;9.47;;;8.00;99.90;;;;;;5053962;28;20212;-63
2022/11/29 05:46:36;;;;;;;13.93;8.60;;;8.00;99.90;;;;;;5060452;28;20734;-63
2022/11/29 05:49:25;;;;;;;14.67;9.23;;;8.00;99.90;;;;;;5054323;28;20189;-63
2022/11/29 05:52:12;;;;;;;14.67;9.93;;;8.00;99.90;;;;;;5054008;28;20261;-63
2022/11/29 05:54:45;;;;;;;14.23;8.17;;;8.00;99.90;;;;;;5053311;28;20558;-63
2022/11/29 05:57:32;;;;;;;14.13;8.83;;;7.90;99.90;;;;;;5062091;28;20186;-63
2022/11/29 06:00:00;;;;;;;15.57;9.30;;;8.00;99.90;;;;;;5059263;28;20205;-63
2022/11/29 06:02:26;;;;;;;11.73;8.83;;;8.10;99.90;;;;;;5071495;28;20284;-63
2022/11/29 06:05:05;;;;;;;15.13;8.13;;;8.10;99.90;;;;;;5071489;28;20264;-63
2022/11/29 06:07:37;;;;;;;13.37;8.53;;;8.20;99.90;;;;;;5060448;28;20190;-63
2022/11/29 06:10:12;;;;;;;11.67;8.07;;;8.20;99.90;;;;;;5062059;28;20204;-63
2022/11/29 06:12:39;;;;;;;9.27;8.03;;;8.20;99.90;;;;;;5061200;28;20206;-63
2022/11/29 06:15:33;;;;;;;11.97;8.27;;;8.30;99.90;;;;;;5056560;28;20617;-62
2022/11/29 06:18:17;;;;;;;14.50;8.83;;;8.30;99.90;;;;;;5070328;28;20185;-63
2022/11/29 06:21:21;;;;;;;15.67;9.37;;;8.40;99.90;;;;;;5070407;28;20230;-63
2022/11/29 06:24:24;;;;;;;16.07;9.37;;;8.40;99.90;;;;;;5061209;28;20178;-62
2022/11/29 06:27:28;;;;;;;12.30;9.23;;;8.50;99.90;;;;;;5052306;28;20194;-63
2022/11/29 06:30:08;;;;;;;13.43;9.07;;;8.60;99.90;;;;;;5054284;28;20216;-64
2022/11/29 06:32:49;;;;;;;13.67;9.03;;;8.60;99.90;;;;;;5064164;28;20185;-64
2022/11/29 06:35:28;;;;;;;17.40;9.67;;;8.60;99.90;;;;;;5055486;28;20186;-64
2022/11/29 06:37:57;;;;;;;15.57;8.93;;;8.60;99.90;;;;;;5060243;28;20655;-63
2022/11/29 06:40:23;;;;;;;19.60;9.67;;;8.60;99.90;;;;;;5059669;28;20716;-63
2022/11/29 06:42:49;;;;;;;19.27;10.50;;;8.60;99.90;;;;;;5061413;28;20193;-64
2022/11/29 06:45:15;;;;;;;13.10;8.27;;;8.60;99.90;;;;;;5056942;28;20565;-63
2022/11/29 06:47:51;;;;;;;15.73;9.70;;;8.70;99.90;;;;;;5057405;28;20205;-63
2022/11/29 06:50:32;;;;;;;18.40;9.40;;;8.60;99.90;;;;;;5060485;28;20193;-64
2022/11/29 06:53:20;;;;;;;16.90;9.60;;;8.70;99.90;;;;;;5063499;28;20213;-64
2022/11/29 06:56:20;;;;;;;15.87;8.13;;;8.70;99.90;;;;;;5053017;28;20173;-64
2022/11/29 06:59:05;;;;;;;13.40;9.63;;;8.70;99.90;;;;;;5055978;28;20216;-63
2022/11/29 07:01:54;;;;;;;14.53;9.77;;;8.60;99.90;;;;;;5053707;28;20693;-64
2022/11/29 07:04:49;;;;;;;12.70;8.47;;;8.60;99.90;;;;;;5061079;28;20182;-64
2022/11/29 07:07:20;;;;;;;13.40;9.00;;;8.70;99.90;;;;;;5063317;28;20611;-63
2022/11/29 07:09:48;;;;;;;15.73;9.10;;;8.70;99.90;;;;;;5095321;28;20178;-63
2022/11/29 07:12:15;;;;;;;12.73;9.07;;;8.70;99.90;;;;;;5053509;28;20209;-63
2022/11/29 07:14:41;;;;;;;13.03;8.23;;;8.70;99.90;;;;;;5052811;28;20182;-64
2022/11/29 07:17:25;;;;;;;18.63;9.23;;;8.70;99.90;;;;;;5052504;28;20192;-63
2022/11/29 07:20:17;;;;;;;21.17;11.20;;;8.80;99.90;;;;;;5061499;28;20206;-64
2022/11/29 07:23:02;;;;;;;17.53;9.70;;;8.80;99.90;;;;;;5050508;28;20646;-64
2022/11/29 07:26:01;;;;;;;14.13;9.70;;;8.80;99.90;;;;;;5058028;28;20220;-63
2022/11/29 07:28:57;;;;;;;16.17;8.83;;;8.80;99.90;;;;;;5057410;28;20217;-63
2022/11/29 07:31:46;;;;;;;14.97;9.33;;;8.80;99.90;;;;;;5055557;28;20263;-63
2022/11/29 07:34:27;;;;;;;12.83;10.30;;;8.80;99.90;;;;;;5056117;28;20592;-60
2022/11/29 07:37:34;;;;;;;17.33;9.47;;;8.80;99.90;;;;;;5055987;28;20193;-63
2022/11/29 07:40:15;;;;;;;20.47;9.97;;;8.70;99.90;;;;;;5045043;28;20201;-64
2022/11/29 07:43:09;;;;;;;15.20;10.53;;;8.70;99.90;;;;;;5053416;28;20200;-64
2022/11/29 07:45:35;;;;;;;18.63;9.70;;;8.70;99.90;;;;;;5058110;28;20596;-63
2022/11/29 07:48:01;;;;;;;17.80;10.73;;;8.70;99.90;;;;;;5068122;28;20211;-65
2022/11/29 07:50:28;;;;;;;15.47;10.27;;;8.70;99.90;;;;;;5056340;28;20181;-63
2022/11/29 07:52:54;;;;;;;16.47;9.83;;;8.70;99.90;;;;;;5069443;28;20192;-64
2022/11/29 07:55:23;;;;;;;13.97;10.07;;;8.70;99.90;;;;;;5057026;28;20545;-64
2022/11/29 07:57:49;;;;;;;16.03;10.60;;;8.70;99.90;;;;;;5069879;28;20185;-64
2022/11/29 08:00:16;;;;;;;17.37;11.07;;;8.70;99.90;;;;;;5069941;28;20683;-64
2022/11/29 08:02:42;;;;;;;18.67;10.87;;;8.70;99.90;;;;;;5063759;28;20552;-64
2022/11/29 08:05:08;;;;;;;20.37;11.60;;;8.80;99.90;;;;;;5062830;28;20197;-63
2022/11/29 08:07:37;;;;;;;15.23;10.50;;;8.90;99.90;;;;;;5060425;28;20194;-63
2022/11/29 08:10:06;;;;;;;16.87;11.07;;;9.00;99.90;;;;;;5072490;28;20195;-64
2022/11/29 08:12:31;;;;;;;15.03;10.00;;;9.00;99.90;;;;;;5064174;28;20197;-64
2022/11/29 08:14:57;;;;;;;15.60;10.53;;;9.10;99.90;;;;;;5063809;28;20185;-64
2022/11/29 08:17:24;;;;;;;14.33;10.00;;;9.10;99.90;;;;;;5063546;28;20180;-63
2022/11/29 08:19:51;;;;;;;15.80;10.43;;;9.20;99.90;;;;;;5059299;28;20255;-63
2022/11/29 08:22:17;;;;;;;19.80;11.07;;;9.30;99.90;;;;;;5034682;28;20208;-62
2022/11/29 08:24:43;;;;;;;20.27;11.60;;;9.30;99.90;;;;;;5064678;28;20194;-64
2022/11/29 08:27:09;;;;;;;24.97;12.10;;;9.20;99.90;;;;;;5066703;28;20180;-63
2022/11/29 08:29:34;;;;;;;19.63;11.13;;;9.20;99.90;;;;;;5047742;28;20269;-63
2022/11/29 08:32:00;;;;;;;20.13;11.38;;;9.10;99.90;;;;;;5075459;28;20189;-64
2022/11/29 08:34:26;;;;;;;18.97;12.40;;;9.20;99.90;;;;;;5049679;28;20186;-64
2022/11/29 08:36:55;;;;;;;19.77;11.45;;;9.20;99.90;;;;;;5065755;28;20196;-64
2022/11/29 08:39:21;;;;;;;21.20;11.47;;;9.30;99.90;;;;;;5055189;28;20611;-64
2022/11/29 08:41:48;;;;;;;17.90;11.43;;;9.30;99.90;;;;;;5060790;28;20179;-64
2022/11/29 08:44:14;;;;;;;17.57;10.90;;;9.40;99.90;;;;;;5072224;28;20338;-63
2022/11/29 08:49:23;;;;;;;20.97;12.63;;;9.40;99.90;;;;;;5060410;28;20191;-65
2022/11/29 08:53:39;;;;;;;17.45;10.55;;;9.30;99.90;;;;;;5068755;28;20642;-64
2022/11/29 08:54:37;;;;;;;20.05;10.65;;;9.30;99.90;;;;;;5059810;28;20206;-63
2022/11/29 08:57:02;;;;;;;21.88;11.93;;;9.30;99.90;;;;;;5064261;28;20186;-63
2022/11/29 08:59:28;;;;;;;21.05;12.45;;;9.30;99.90;;;;;;5067440;28;20209;-64
2022/11/29 09:01:54;;;;;;;26.13;14.47;;;9.30;99.90;;;;;;5061961;28;20221;-63
2022/11/29 09:04:19;;;;;;;23.58;11.85;;;9.40;99.90;;;;;;5062084;28;20272;-61
2022/11/29 09:06:48;;;;;;;21.77;12.50;;;9.60;99.90;;;;;;5072673;28;20212;-63
2022/11/29 09:09:14;;;;;;;18.05;12.27;;;9.60;99.90;;;;;;5054616;28;20193;-61
2022/11/29 09:11:40;;;;;;;19.50;12.33;;;9.70;99.90;;;;;;5062391;28;20585;-63
2022/11/29 09:14:07;;;;;;;23.50;14.07;;;9.70;99.90;;;;;;5062591;28;20198;-65
2022/11/29 09:16:37;;;;;;;22.60;12.80;;;9.70;99.90;;;;;;5071785;28;20294;-64
2022/11/29 09:19:04;;;;;;;24.30;14.13;;;9.70;99.90;;;;;;5098878;27;20217;-65
2022/11/29 09:21:31;;;;;;;18.80;12.13;;;9.60;99.90;;;;;;5054088;28;20194;-64
2022/11/29 09:24:05;;;;;;;22.45;10.82;;;9.90;99.90;;;;;;5057036;28;20189;-64
2022/11/29 09:26:34;;;;;;;21.23;11.70;;;9.70;99.90;;;;;;5056328;28;20189;-64
2022/11/29 09:29:01;;;;;;;21.00;12.25;;;9.50;99.90;;;;;;5055144;28;20541;-64
2022/11/29 09:31:29;;;;;;;20.13;11.90;;;9.40;99.90;;;;;;5063108;28;20185;-64
2022/11/29 09:33:55;;;;;;;19.85;11.23;;;9.40;99.90;;;;;;5055957;28;20193;-63
2022/11/29 09:36:21;;;;;;;16.25;10.52;;;9.50;99.90;;;;;;5054288;28;20194;-63
2022/11/29 09:38:47;;;;;;;17.20;10.50;;;9.50;99.90;;;;;;5069310;28;20293;-64
2022/11/29 09:41:31;;;;;;;18.83;10.52;;;9.60;99.90;;;;;;5060018;28;20293;-63
2022/11/29 09:44:22;;;;;;;18.20;9.18;;;9.60;99.90;;;;;;5054089;28;20189;-63
2022/11/29 09:47:19;;;;;;;17.17;9.00;;;9.60;99.90;;;;;;5053937;28;20217;-64
2022/11/29 09:49:57;;;;;;;16.75;9.70;;;9.80;99.90;;;;;;5061273;28;20281;-64
2022/11/29 09:52:46;;;;;;;17.85;10.35;;;9.80;99.90;;;;;;5063752;28;20178;-64
2022/11/29 09:55:27;;;;;;;20.27;9.55;;;10.00;99.90;;;;;;5055743;28;20185;-64
2022/11/29 09:57:55;;;;;;;17.98;9.88;;;10.00;99.90;;;;;;5058931;28;20186;-64
2022/11/29 10:00:21;;;;;;;15.43;10.15;;;10.00;99.90;;;;;;5056284;28;20206;-64
2022/11/29 10:02:57;;;;;;;22.00;10.88;;;9.90;99.90;;;;;;5057425;28;20192;-64
2022/11/29 10:05:36;;;;;;;14.82;10.25;;;9.90;99.90;;;;;;5053420;28;20213;-64
2022/11/29 10:08:18;;;;;;;14.20;9.45;;;10.00;99.90;;;;;;5065440;28;20182;-64
2022/11/29 10:10:49;;;;;;;20.67;10.60;;;10.10;99.90;;;;;;5062540;28;20173;-65
2022/11/29 10:13:15;;;;;;;13.48;9.05;;;10.20;99.90;;;;;;5056123;28;20201;-65
2022/11/29 10:15:44;;;;;;;16.63;9.70;;;10.10;99.90;;;;;;5060242;28;20189;-64
2022/11/29 10:18:25;;;;;;;17.55;10.25;;;10.00;99.90;;;;;;5065028;28;20689;-65
2022/11/29 10:20:57;;;;;;;15.75;9.80;;;10.00;99.90;;;;;;5054133;28;20227;-64
2022/11/29 10:23:47;;;;;;;16.35;10.75;;;10.00;99.90;;;;;;5053315;28;20221;-65
2022/11/29 10:26:13;;;;;;;16.45;9.18;;;10.20;99.90;;;;;;5058227;28;20189;-64
2022/11/29 10:28:47;;;;;;;19.88;11.52;;;10.20;99.90;;;;;;5058447;28;20200;-64
2022/11/29 10:31:27;;;;;;;15.75;9.75;;;10.20;99.90;;;;;;5056613;28;20273;-64
2022/11/29 10:33:55;;;;;;;19.83;11.13;;;10.10;99.90;;;;;;5072504;28;20181;-64
2022/11/29 10:36:33;;;;;;;14.40;10.13;;;10.10;99.90;;;;;;5067562;28;20194;-64
2022/11/29 10:39:04;;;;;;;20.60;10.80;;;10.10;99.90;;;;;;5056169;28;20636;-64
2022/11/29 10:41:31;;;;;;;16.35;10.20;;;10.10;99.90;;;;;;5054715;28;20236;-64
2022/11/29 10:43:58;;;;;;;22.15;10.48;;;10.10;99.90;;;;;;5062541;28;20277;-64
2022/11/29 10:46:34;;;;;;;17.83;9.85;;;10.20;99.90;;;;;;5053905;28;20280;-64
2022/11/29 10:49:05;;;;;;;18.70;10.45;;;10.20;99.90;;;;;;5052469;28;20284;-63
2022/11/29 10:51:32;;;;;;;18.67;9.52;;;10.30;99.90;;;;;;5052839;28;20178;-64
2022/11/29 10:54:16;;;;;;;19.83;9.68;;;10.20;99.90;;;;;;5064003;28;20684;-64
2022/11/29 10:56:42;;;;;;;15.27;9.32;;;10.10;99.90;;;;;;5058826;28;20197;-64
2022/11/29 10:59:22;;;;;;;18.63;10.65;;;10.10;99.90;;;;;;5060352;28;20208;-63
2022/11/29 11:01:48;;;;;;;17.55;10.45;;;9.90;99.90;;;;;;5058306;28;20189;-64
2022/11/29 11:04:21;;;;;;;23.90;10.50;;;9.90;99.90;;;;;;5056405;28;20194;-64
2022/11/29 11:06:55;;;;;;;17.42;9.55;;;9.80;99.90;;;;;;5051125;28;20232;-64
2022/11/29 11:09:23;;;;;;;18.17;9.82;;;9.80;99.90;;;;;;5052857;28;20247;-64
2022/11/29 11:12:04;;;;;;;21.73;10.45;;;9.80;99.90;;;;;;5051944;28;20702;-64
2022/11/29 11:14:37;;;;;;;18.20;10.32;;;9.80;99.90;;;;;;5056610;28;20215;-64
2022/11/29 11:17:24;;;;;;;19.70;11.00;;;9.80;99.90;;;;;;5067732;28;20272;-64
2022/11/29 11:19:56;;;;;;;18.63;11.68;;;9.70;99.90;;;;;;5070013;28;20280;-64
2022/11/29 11:22:23;;;;;;;21.05;10.60;;;9.80;99.90;;;;;;5054643;28;20186;-63
2022/11/29 11:24:58;;;;;;;19.52;10.82;;;9.90;99.90;;;;;;5055979;28;20213;-64
2022/11/29 11:27:50;;;;;;;16.63;10.30;;;10.00;99.90;;;;;;5063488;28;20189;-63
2022/11/29 11:30:24;;;;;;;14.13;9.57;;;10.10;99.90;;;;;;5061080;28;20201;-64
2022/11/29 11:33:22;;;;;;;21.05;10.77;;;10.10;99.90;;;;;;5058436;28;20181;-64
2022/11/29 11:36:08;;;;;;;16.30;10.05;;;10.20;99.90;;;;;;5052660;28;20263;-63
2022/11/29 11:38:37;;;;;;;15.00;9.82;;;10.20;99.90;;;;;;5052187;28;20205;-64
2022/11/29 11:41:04;;;;;;;18.33;9.90;;;10.20;99.90;;;;;;5051193;28;20635;-63
2022/11/29 11:43:31;;;;;;;24.08;9.98;;;10.40;99.90;;;;;;5052327;28;20201;-63
2022/11/29 11:45:57;;;;;;;19.00;10.05;;;10.50;99.90;;;;;;5068068;28;20189;-63
2022/11/29 11:48:23;;;;;;;14.82;8.73;;;10.50;99.90;;;;;;5052206;28;20401;-63
2022/11/29 11:50:52;;;;;;;18.77;10.52;;;10.30;99.90;;;;;;5052577;28;20233;-64
2022/11/29 11:53:18;;;;;;;16.75;10.43;;;10.50;99.90;;;;;;5083990;28;20182;-64
2022/11/29 11:56:00;;;;;;;15.25;9.85;;;10.50;99.90;;;;;;5084499;28;20174;-64
2022/11/29 11:58:37;;;;;;;16.10;10.48;;;10.50;99.90;;;;;;5058536;28;20184;-64
2022/11/29 12:01:12;;;;;;;16.45;9.93;;;10.40;99.90;;;;;;5057318;28;20189;-64
2022/11/29 12:03:43;;;;;;;15.43;10.30;;;10.40;99.90;;;;;;5062494;28;20181;-64
2022/11/29 12:06:33;;;;;;;16.90;9.60;;;10.40;99.90;;;;;;5071166;28;20181;-64
2022/11/29 12:09:15;;;;;;;18.02;9.63;;;10.50;99.90;;;;;;5051593;28;20197;-64
2022/11/29 12:12:01;;;;;;;17.70;8.48;;;10.70;99.90;;;;;;5066810;28;20189;-64
2022/11/29 12:15:00;;;;;;;13.23;8.82;;;10.80;99.90;;;;;;5069450;28;20262;-64
2022/11/29 12:17:47;;;;;;;16.55;9.90;;;10.50;99.90;;;;;;5062389;28;20184;-65
2022/11/29 12:20:40;;;;;;;17.13;10.10;;;10.40;99.90;;;;;;5054834;28;20217;-64
2022/11/29 12:23:11;;;;;;;19.77;10.85;;;10.40;99.90;;;;;;5059801;28;20176;-65
2022/11/29 12:25:49;;;;;;;15.15;9.27;;;10.50;99.90;;;;;;5055645;28;20208;-64
2022/11/29 12:28:17;;;;;;;21.08;10.77;;;10.60;99.90;;;;;;5063024;28;20186;-64
2022/11/29 12:31:15;;;;;;;21.60;9.50;;;10.50;99.90;;;;;;5070697;28;20181;-64
2022/11/29 12:34:01;;;;;;;18.67;9.63;;;10.40;99.90;;;;;;5055570;28;20182;-64
2022/11/29 12:36:32;;;;;;;15.65;9.50;;;10.50;99.90;;;;;;5069260;28;20188;-65
2022/11/29 12:39:36;;;;;;;14.57;8.50;;;10.40;99.90;;;;;;5058555;28;20206;-64
2022/11/29 12:42:35;;;;;;;19.67;10.35;;;10.30;99.90;;;;;;5059106;28;20196;-64
2022/11/29 12:45:22;;;;;;;14.18;8.88;;;10.40;99.90;;;;;;5066893;28;20182;-64
2022/11/29 12:48:16;;;;;;;12.32;8.25;;;10.60;99.90;;;;;;5063239;28;20675;-64
2022/11/29 12:50:41;;;;;;;13.18;8.48;;;10.60;99.90;;;;;;5055250;28;20295;-64
2022/11/29 12:53:20;;;;;;;15.90;8.95;;;10.60;99.90;;;;;;5054558;28;20182;-64
2022/11/29 12:56:16;;;;;;;15.25;8.43;;;10.50;99.90;;;;;;5055673;28;20184;-64
2022/11/29 12:59:18;;;;;;;14.77;8.68;;;10.50;99.90;;;;;;5054439;28;20217;-65
2022/11/29 13:02:15;;;;;;;12.80;8.63;;;10.50;99.90;;;;;;5055312;28;20256;-64
2022/11/29 13:05:08;;;;;;;12.93;9.10;;;10.50;99.90;;;;;;5057863;28;20189;-64
2022/11/29 13:08:09;;;;;;;15.45;8.82;;;10.50;99.90;;;;;;5055472;28;20289;-64
2022/11/29 13:10:40;;;;;;;28.63;9.57;;;10.40;99.90;;;;;;5061658;28;20654;-65
2022/11/29 13:13:27;;;;;;;19.65;10.70;;;10.50;99.90;;;;;;5060274;28;20243;-64
2022/11/29 13:16:16;;;;;;;14.50;9.32;;;10.50;99.90;;;;;;5055328;28;20193;-63
2022/11/29 13:18:52;;;;;;;22.45;11.13;;;10.60;99.90;;;;;;5054599;28;20602;-63
2022/11/29 13:21:51;;;;;;;15.52;9.68;;;10.70;99.90;;;;;;5054166;28;20186;-64
2022/11/29 13:24:23;;;;;;;16.63;9.45;;;10.60;99.90;;;;;;5052847;28;20600;-64
2022/11/29 13:26:49;;;;;;;16.77;9.63;;;10.70;99.90;;;;;;5056071;28;20170;-64
2022/11/29 13:29:17;;;;;;;15.55;9.13;;;10.70;99.90;;;;;;5053225;28;20247;-65
2022/11/29 13:31:44;;;;;;;16.65;9.38;;;10.70;99.90;;;;;;5054529;28;20186;-64
2022/11/29 13:34:19;;;;;;;17.88;9.88;;;10.80;99.90;;;;;;5052956;28;20194;-65